createdAt,value
2023-03-31T00:01:07.764Z,14.69
2023-03-31T00:03:39.036Z,14.68
2023-03-31T00:06:06.249Z,14.70
2023-03-31T00:08:36.338Z,14.70
2023-03-31T00:11:07.670Z,14.70
2023-03-31T00:13:36.233Z,14.71
2023-03-31T00:16:09.574Z,14.67
2023-03-31T00:18:38.059Z,14.62
2023-03-31T00:21:25.321Z,14.61
2023-03-31T00:23:59.187Z,14.63
2023-03-31T00:26:26.481Z,14.65
2023-03-31T00:28:54.497Z,14.68
2023-03-31T00:31:23.642Z,14.58
2023-03-31T00:33:51.038Z,14.61
2023-03-31T00:36:27.498Z,14.52
2023-03-31T00:39:11.864Z,14.51
2023-03-31T00:41:39.848Z,14.43
2023-03-31T00:44:23.244Z,14.40
2023-03-31T00:46:53.406Z,14.40
2023-03-31T00:49:38.362Z,14.44
2023-03-31T00:52:22.080Z,14.36
2023-03-31T00:54:53.961Z,14.28
2023-03-31T00:57:22.970Z,14.19
2023-03-31T00:59:59.176Z,14.21
2023-03-31T01:02:26.686Z,14.29
2023-03-31T01:05:00.805Z,14.37
2023-03-31T01:07:54.540Z,14.42
2023-03-31T01:10:22.759Z,14.43
2023-03-31T01:12:55.819Z,14.50
2023-03-31T01:15:23.728Z,14.55
2023-03-31T01:17:56.174Z,14.52
2023-03-31T01:20:49.670Z,14.58
2023-03-31T01:23:45.968Z,14.51
2023-03-31T01:26:43.210Z,14.51
2023-03-31T01:29:52.371Z,14.57
2023-03-31T01:32:37.882Z,14.58
2023-03-31T01:35:33.024Z,14.58
2023-03-31T01:38:32.743Z,14.63
2023-03-31T01:41:18.803Z,14.59
2023-03-31T01:43:55.220Z,14.56
2023-03-31T01:46:37.285Z,14.60
2023-03-31T01:49:35.517Z,14.61
2023-03-31T01:52:21.880Z,14.61
2023-03-31T01:54:52.952Z,14.54
2023-03-31T01:57:28.632Z,14.53
2023-03-31T02:00:11.664Z,14.55
2023-03-31T02:03:04.461Z,14.51
2023-03-31T02:05:42.525Z,14.56
2023-03-31T02:08:20.169Z,14.56
2023-03-31T02:10:49.413Z,14.61
2023-03-31T02:13:19.445Z,14.66
2023-03-31T02:15:52.041Z,14.64
2023-03-31T02:18:26.300Z,14.66
2023-03-31T02:20:57.659Z,14.65
2023-03-31T02:23:31.758Z,14.65
2023-03-31T02:26:14.105Z,14.65
2023-03-31T02:28:45.382Z,14.64
2023-03-31T02:31:24.802Z,14.64
2023-03-31T02:33:53.173Z,14.63
2023-03-31T02:36:21.899Z,14.66
2023-03-31T02:38:57.167Z,14.69
2023-03-31T02:41:24.643Z,14.70
2023-03-31T02:43:56.568Z,14.72
2023-03-31T02:46:25.509Z,14.69
2023-03-31T02:48:56.784Z,14.68
2023-03-31T02:51:42.373Z,14.65
2023-03-31T02:54:18.275Z,14.68
2023-03-31T02:57:25.140Z,14.73
2023-03-31T03:00:37.518Z,14.71
2023-03-31T03:03:36.364Z,14.65
2023-03-31T03:06:24.508Z,14.53
2023-03-31T03:09:22.815Z,14.52
2023-03-31T03:12:08.122Z,14.52
2023-03-31T03:14:54.867Z,14.52
2023-03-31T03:17:42.055Z,14.53
2023-03-31T03:20:10.589Z,14.55
2023-03-31T03:22:38.967Z,14.49
2023-03-31T03:25:07.455Z,14.52
2023-03-31T03:27:35.959Z,14.52
2023-03-31T03:30:06.855Z,14.49
2023-03-31T03:32:42.036Z,14.53
2023-03-31T03:35:10.197Z,14.46
2023-03-31T03:37:39.105Z,14.46
2023-03-31T03:40:06.596Z,14.40
2023-03-31T03:42:34.449Z,14.35
2023-03-31T03:45:01.659Z,14.28
2023-03-31T03:47:28.987Z,14.28
2023-03-31T03:49:56.192Z,14.31
2023-03-31T03:52:23.199Z,14.31
2023-03-31T03:54:50.440Z,14.18
2023-03-31T03:57:21.816Z,14.09
2023-03-31T03:59:49.014Z,14.07
2023-03-31T04:02:16.385Z,13.99
2023-03-31T04:04:43.203Z,14.05
2023-03-31T04:07:09.903Z,14.17
2023-03-31T04:09:37.074Z,14.27
2023-03-31T04:12:04.855Z,14.35
2023-03-31T04:14:32.863Z,14.43
2023-03-31T04:16:59.926Z,14.46
2023-03-31T04:19:27.933Z,14.49
2023-03-31T04:22:02.840Z,14.40
2023-03-31T04:24:33.015Z,14.20
2023-03-31T04:27:03.110Z,14.00
2023-03-31T04:29:33.609Z,13.77
2023-03-31T04:32:01.294Z,13.74
2023-03-31T04:34:36.495Z,13.78
2023-03-31T04:37:04.322Z,13.78
2023-03-31T04:39:31.471Z,13.76
2023-03-31T04:42:00.737Z,13.90
2023-03-31T04:44:30.772Z,13.91
2023-03-31T04:46:59.068Z,13.87
2023-03-31T04:49:25.768Z,13.79
2023-03-31T04:51:52.769Z,13.70
2023-03-31T04:54:19.596Z,13.72
2023-03-31T04:56:46.541Z,13.82
2023-03-31T04:59:13.334Z,13.92
2023-03-31T05:01:45.884Z,13.95
2023-03-31T05:04:13.663Z,13.97
2023-03-31T05:06:41.293Z,14.00
2023-03-31T05:09:09.954Z,14.02
2023-03-31T05:11:38.620Z,13.95
2023-03-31T05:14:09.249Z,13.94
2023-03-31T05:16:39.448Z,13.89
2023-03-31T05:19:06.617Z,13.84
2023-03-31T05:21:37.508Z,13.78
2023-03-31T05:24:07.414Z,13.77
2023-03-31T05:26:35.181Z,13.73
2023-03-31T05:29:02.496Z,13.68
2023-03-31T05:31:30.021Z,13.51
2023-03-31T05:33:57.418Z,13.31
2023-03-31T05:36:27.543Z,13.11
2023-03-31T05:38:54.630Z,12.98
2023-03-31T05:41:23.514Z,12.90
2023-03-31T05:43:50.792Z,12.99
2023-03-31T05:46:18.713Z,12.79
2023-03-31T05:48:46.017Z,12.72
2023-03-31T05:51:13.604Z,12.71
2023-03-31T05:53:42.299Z,12.76
2023-03-31T05:56:09.866Z,12.97
2023-03-31T05:58:38.105Z,13.11
2023-03-31T06:01:08.457Z,13.09
2023-03-31T06:03:39.106Z,13.00
2023-03-31T06:06:09.410Z,12.66
2023-03-31T06:08:38.489Z,12.24
2023-03-31T06:11:14.670Z,12.00
2023-03-31T06:13:43.387Z,11.84
2023-03-31T06:16:12.716Z,11.73
2023-03-31T06:18:42.131Z,11.68
2023-03-31T06:21:16.395Z,11.79
2023-03-31T06:23:46.988Z,11.81
2023-03-31T06:26:19.059Z,11.71
2023-03-31T06:28:47.170Z,11.72
2023-03-31T06:31:21.198Z,11.83
2023-03-31T06:33:48.847Z,12.00
2023-03-31T06:36:18.856Z,12.11
2023-03-31T06:38:46.599Z,12.30
2023-03-31T06:41:18.900Z,12.42
2023-03-31T06:43:46.730Z,12.48
2023-03-31T06:46:16.878Z,12.59
2023-03-31T06:48:46.103Z,12.71
2023-03-31T06:51:13.713Z,12.96
2023-03-31T06:53:42.261Z,13.12
2023-03-31T06:56:11.651Z,13.14
2023-03-31T06:58:41.409Z,13.28
2023-03-31T07:01:12.207Z,13.40
2023-03-31T07:03:43.380Z,13.32
2023-03-31T07:06:14.266Z,13.33
2023-03-31T07:08:42.487Z,13.38
2023-03-31T07:11:12.799Z,13.38
2023-03-31T07:13:39.808Z,13.30
2023-03-31T07:16:08.468Z,13.28
2023-03-31T07:18:36.911Z,13.38
2023-03-31T07:21:09.001Z,13.47
2023-03-31T07:23:37.278Z,13.58
2023-03-31T07:26:04.684Z,13.69
2023-03-31T07:28:35.328Z,13.78
2023-03-31T07:31:14.572Z,13.96
2023-03-31T07:33:42.077Z,14.28
2023-03-31T07:36:13.282Z,14.44
2023-03-31T07:38:43.429Z,14.39
2023-03-31T07:41:14.740Z,14.21
2023-03-31T07:43:42.423Z,14.22
2023-03-31T07:46:21.854Z,14.45
2023-03-31T07:48:49.826Z,14.89
2023-03-31T07:51:21.886Z,15.16
2023-03-31T07:53:53.069Z,15.28
2023-03-31T07:56:22.294Z,15.29
2023-03-31T07:58:49.492Z,15.25
2023-03-31T08:01:19.058Z,15.08
2023-03-31T08:03:51.046Z,14.84
2023-03-31T08:06:19.962Z,14.71
2023-03-31T08:08:46.684Z,14.67
2023-03-31T08:11:14.192Z,14.49
2023-03-31T08:13:41.083Z,14.36
2023-03-31T08:16:08.205Z,14.48
2023-03-31T08:18:35.991Z,14.49
2023-03-31T08:21:06.666Z,14.55
2023-03-31T08:23:36.959Z,14.80
2023-03-31T08:26:16.395Z,15.07
2023-03-31T08:28:46.114Z,15.10
2023-03-31T08:31:16.584Z,14.99
2023-03-31T08:33:44.167Z,15.18
2023-03-31T08:36:12.313Z,15.51
2023-03-31T08:38:45.996Z,16.06
2023-03-31T08:41:28.433Z,16.10
2023-03-31T08:43:57.384Z,16.10
2023-03-31T08:46:32.947Z,16.16
2023-03-31T08:49:01.463Z,16.14
2023-03-31T08:51:34.304Z,16.28
2023-03-31T08:54:17.988Z,16.17
2023-03-31T08:56:49.433Z,15.81
2023-03-31T08:59:36.390Z,15.37
2023-03-31T09:02:36.382Z,15.15
2023-03-31T09:05:11.562Z,15.00
2023-03-31T09:08:06.456Z,14.88
2023-03-31T09:10:43.820Z,14.76
2023-03-31T09:13:19.614Z,14.66
2023-03-31T09:15:58.621Z,14.65
2023-03-31T09:18:38.051Z,14.61
2023-03-31T09:21:08.850Z,14.40
2023-03-31T09:23:43.057Z,14.29
2023-03-31T09:26:23.477Z,14.25
2023-03-31T09:28:53.197Z,14.20
2023-03-31T09:31:21.915Z,14.12
2023-03-31T09:33:52.894Z,13.91
2023-03-31T09:36:24.696Z,13.59
2023-03-31T09:38:51.915Z,13.18
2023-03-31T09:41:20.256Z,13.01
2023-03-31T09:43:49.669Z,12.91
2023-03-31T09:46:19.613Z,12.88
2023-03-31T09:49:00.613Z,12.90
2023-03-31T09:51:32.777Z,12.99
2023-03-31T09:54:22.809Z,13.25
2023-03-31T09:56:55.336Z,13.42
2023-03-31T09:59:38.921Z,13.63
2023-03-31T10:02:19.551Z,13.80
2023-03-31T10:04:46.756Z,14.00
2023-03-31T10:07:13.950Z,14.33
2023-03-31T10:09:42.843Z,14.69
2023-03-31T10:12:21.331Z,14.98
2023-03-31T10:14:50.611Z,15.07
2023-03-31T10:17:20.982Z,15.03
2023-03-31T10:20:06.529Z,15.35
2023-03-31T10:22:35.756Z,15.86
2023-03-31T10:25:28.947Z,16.29
2023-03-31T10:27:57.433Z,16.67
2023-03-31T10:30:28.913Z,16.66
2023-03-31T10:32:56.505Z,16.61
2023-03-31T10:35:34.998Z,16.74
2023-03-31T10:38:12.430Z,17.08
2023-03-31T10:40:43.747Z,17.27
2023-03-31T10:43:16.935Z,17.30
2023-03-31T10:45:51.551Z,17.55
2023-03-31T10:48:33.465Z,17.93
2023-03-31T10:51:18.738Z,18.34
2023-03-31T10:53:48.462Z,18.24
2023-03-31T10:56:21.634Z,17.71
2023-03-31T10:59:02.002Z,17.02
2023-03-31T11:01:52.857Z,16.20
2023-03-31T11:04:47.895Z,15.39
2023-03-31T11:07:22.588Z,15.21
2023-03-31T11:10:08.289Z,15.36
2023-03-31T11:12:51.921Z,15.44
2023-03-31T11:15:19.260Z,15.45
2023-03-31T11:18:31.491Z,15.48
2023-03-31T11:21:26.652Z,15.44
2023-03-31T11:24:24.457Z,15.48
2023-03-31T11:27:09.133Z,15.36
2023-03-31T11:30:07.459Z,15.56
2023-03-31T11:32:53.118Z,15.93
2023-03-31T11:35:39.530Z,17.23
2023-03-31T11:38:16.095Z,20.12
2023-03-31T11:41:09.412Z,22.23
2023-03-31T11:44:04.864Z,23.83
2023-03-31T11:46:40.605Z,24.34
2023-03-31T11:49:25.285Z,23.01
2023-03-31T11:51:57.085Z,21.45
2023-03-31T11:54:31.659Z,20.19
2023-03-31T11:57:03.626Z,19.01
2023-03-31T11:59:33.000Z,18.31
2023-03-31T12:02:23.869Z,17.82
2023-03-31T12:04:56.807Z,17.12
2023-03-31T12:07:31.969Z,16.29
2023-03-31T12:10:05.946Z,15.73
2023-03-31T12:12:40.091Z,15.94
2023-03-31T12:15:25.524Z,16.60
2023-03-31T12:18:16.997Z,17.13
2023-03-31T12:20:53.161Z,17.34
2023-03-31T12:23:27.714Z,17.55
2023-03-31T12:26:23.152Z,17.68
2023-03-31T12:28:57.981Z,17.67
2023-03-31T12:31:28.166Z,17.73
2023-03-31T12:34:14.132Z,17.81
2023-03-31T12:36:55.572Z,17.97
2023-03-31T12:39:56.907Z,18.05
2023-03-31T12:42:48.940Z,18.26
2023-03-31T12:45:39.662Z,18.44
2023-03-31T12:48:27.033Z,18.46
2023-03-31T12:51:18.362Z,18.39
2023-03-31T12:54:01.995Z,18.44
2023-03-31T12:56:51.262Z,18.41
2023-03-31T12:59:25.973Z,18.34
2023-03-31T13:02:12.667Z,18.29
2023-03-31T13:04:40.055Z,18.22
2023-03-31T13:07:29.261Z,18.27
2023-03-31T13:10:15.376Z,18.24
2023-03-31T13:12:54.837Z,18.18
2023-03-31T13:15:25.133Z,18.22
2023-03-31T13:17:59.660Z,18.42
2023-03-31T13:20:38.228Z,18.66
2023-03-31T13:23:16.453Z,18.67
2023-03-31T13:25:46.112Z,18.58
2023-03-31T13:28:21.924Z,18.53
2023-03-31T13:30:53.770Z,18.58
2023-03-31T13:33:20.548Z,18.61
2023-03-31T13:35:53.178Z,18.44
2023-03-31T13:39:02.190Z,18.22
2023-03-31T13:41:54.455Z,18.15
2023-03-31T13:44:51.625Z,17.99
2023-03-31T13:48:04.227Z,17.99
2023-03-31T13:51:02.262Z,17.84
2023-03-31T13:54:00.085Z,17.89
2023-03-31T13:56:34.049Z,17.74
2023-03-31T13:59:22.758Z,17.55
2023-03-31T14:02:14.314Z,17.31
2023-03-31T14:05:05.813Z,16.76
2023-03-31T14:07:43.691Z,16.30
2023-03-31T14:10:34.863Z,15.92
2023-03-31T14:13:26.137Z,15.62
2023-03-31T14:16:00.370Z,15.45
2023-03-31T14:18:41.318Z,15.36
2023-03-31T14:21:47.736Z,15.45
2023-03-31T14:24:26.586Z,15.70
2023-03-31T14:27:13.419Z,16.03
2023-03-31T14:30:00.531Z,16.33
2023-03-31T14:32:54.491Z,16.76
2023-03-31T14:35:55.314Z,17.16
2023-03-31T14:38:23.828Z,17.24
2023-03-31T14:40:57.572Z,17.46
2023-03-31T14:43:38.010Z,17.53
2023-03-31T14:46:07.687Z,17.34
2023-03-31T14:48:47.381Z,17.32
2023-03-31T14:51:16.973Z,17.30
2023-03-31T14:53:45.534Z,17.24
2023-03-31T14:56:16.459Z,17.26
2023-03-31T14:58:47.744Z,17.29
2023-03-31T15:01:24.077Z,17.13
2023-03-31T15:03:53.532Z,16.87
2023-03-31T15:06:25.926Z,16.52
2023-03-31T15:08:59.180Z,16.11
2023-03-31T15:11:30.719Z,15.98
2023-03-31T15:14:05.185Z,15.79
2023-03-31T15:16:56.802Z,15.65
2023-03-31T15:19:27.934Z,15.91
2023-03-31T15:21:57.261Z,16.25
2023-03-31T15:24:24.210Z,16.47
2023-03-31T15:27:26.303Z,16.59
2023-03-31T15:30:00.050Z,16.61
2023-03-31T15:32:28.634Z,16.66
2023-03-31T15:35:18.597Z,16.63
2023-03-31T15:37:50.447Z,16.69
2023-03-31T15:40:27.178Z,16.73
2023-03-31T15:43:06.327Z,16.53
2023-03-31T15:45:58.071Z,16.35
2023-03-31T15:48:53.242Z,16.24
2023-03-31T15:51:28.597Z,16.07
2023-03-31T15:53:55.910Z,15.81
2023-03-31T15:56:44.951Z,15.68
2023-03-31T15:59:37.921Z,15.59
2023-03-31T16:02:18.116Z,15.52
2023-03-31T16:04:49.396Z,15.60
2023-03-31T16:07:23.980Z,15.57
2023-03-31T16:10:22.263Z,15.49
2023-03-31T16:12:52.461Z,15.34
2023-03-31T16:15:30.332Z,15.30
2023-03-31T16:18:03.559Z,15.18
2023-03-31T16:20:40.375Z,15.09
2023-03-31T16:23:16.970Z,15.09
2023-03-31T16:25:44.935Z,15.12
2023-03-31T16:28:28.755Z,15.16
2023-03-31T16:30:55.697Z,15.12
2023-03-31T16:33:24.625Z,15.06
2023-03-31T16:35:56.243Z,14.99
2023-03-31T16:38:25.809Z,14.96
2023-03-31T16:40:55.200Z,14.95
2023-03-31T16:43:28.047Z,14.99
2023-03-31T16:45:57.763Z,14.96
2023-03-31T16:48:28.439Z,14.88
2023-03-31T16:50:57.761Z,14.90
2023-03-31T16:53:43.070Z,14.94
2023-03-31T16:56:11.969Z,14.80
2023-03-31T16:58:39.789Z,14.80
2023-03-31T17:01:08.551Z,14.82
2023-03-31T17:03:37.774Z,14.79
2023-03-31T17:06:12.087Z,14.73
2023-03-31T17:08:40.035Z,14.60
2023-03-31T17:11:11.961Z,14.56
2023-03-31T17:13:42.713Z,14.51
2023-03-31T17:16:19.301Z,14.47
2023-03-31T17:18:54.347Z,14.52
2023-03-31T17:21:22.017Z,14.55
2023-03-31T17:23:49.961Z,14.56
2023-03-31T17:26:17.849Z,14.52
2023-03-31T17:28:45.655Z,14.48
2023-03-31T17:31:15.005Z,14.44
2023-03-31T17:33:43.689Z,14.47
2023-03-31T17:36:12.062Z,14.45
2023-03-31T17:38:40.137Z,14.38
2023-03-31T17:41:10.816Z,14.30
2023-03-31T17:43:38.218Z,14.20
2023-03-31T17:46:13.483Z,14.21
2023-03-31T17:48:41.669Z,14.23
2023-03-31T17:51:16.126Z,14.17
2023-03-31T17:53:45.885Z,14.16
2023-03-31T17:56:13.236Z,14.11
2023-03-31T17:58:41.415Z,13.93
2023-03-31T18:01:09.694Z,13.92
2023-03-31T18:03:36.702Z,13.95
2023-03-31T18:06:12.772Z,13.91
2023-03-31T18:08:46.275Z,13.94
2023-03-31T18:11:14.576Z,14.06
2023-03-31T18:13:45.361Z,14.12
2023-03-31T18:16:14.949Z,14.17
2023-03-31T18:18:42.558Z,14.23
2023-03-31T18:21:12.060Z,14.20
2023-03-31T18:23:40.545Z,14.14
2023-03-31T18:26:09.668Z,14.02
2023-03-31T18:28:44.222Z,14.01
2023-03-31T18:31:12.369Z,13.96
2023-03-31T18:33:40.806Z,13.96
2023-03-31T18:36:19.702Z,13.91
2023-03-31T18:38:48.626Z,13.71
2023-03-31T18:41:19.286Z,13.69
2023-03-31T18:43:47.818Z,13.70
2023-03-31T18:46:14.670Z,13.77
2023-03-31T18:48:42.161Z,13.79
2023-03-31T18:51:11.178Z,13.77
2023-03-31T18:53:38.303Z,13.72
2023-03-31T18:56:06.433Z,13.72
2023-03-31T18:58:33.592Z,13.71
2023-03-31T19:01:01.404Z,13.71
2023-03-31T19:03:28.386Z,13.76
2023-03-31T19:06:10.097Z,13.72
2023-03-31T19:08:37.952Z,13.63
2023-03-31T19:11:12.268Z,13.66
2023-03-31T19:13:42.054Z,13.64
2023-03-31T19:16:09.585Z,13.62
2023-03-31T19:18:36.642Z,13.37
2023-03-31T19:21:06.385Z,13.32
2023-03-31T19:23:34.417Z,13.34
2023-03-31T19:26:03.091Z,13.31
2023-03-31T19:28:31.626Z,13.24
2023-03-31T19:30:59.386Z,13.09
2023-03-31T19:33:26.802Z,13.04
2023-03-31T19:35:54.015Z,13.04
2023-03-31T19:38:22.217Z,13.05
2023-03-31T19:40:54.940Z,12.94
2023-03-31T19:43:24.774Z,12.84
2023-03-31T19:45:54.247Z,12.82
2023-03-31T19:48:21.692Z,12.77
2023-03-31T19:50:56.081Z,12.65
2023-03-31T19:53:24.606Z,12.66
2023-03-31T19:56:03.174Z,12.67
2023-03-31T19:58:31.181Z,12.63
2023-03-31T20:00:58.166Z,12.57
2023-03-31T20:03:27.424Z,12.49
2023-03-31T20:06:04.943Z,12.53
2023-03-31T20:08:32.559Z,12.52
2023-03-31T20:11:03.037Z,12.60
2023-03-31T20:13:32.589Z,12.60
2023-03-31T20:16:01.952Z,12.55
2023-03-31T20:18:29.542Z,12.62
2023-03-31T20:21:08.266Z,12.64
2023-03-31T20:23:38.255Z,12.63
2023-03-31T20:26:06.805Z,12.59
2023-03-31T20:28:35.082Z,12.43
2023-03-31T20:31:14.536Z,12.61
2023-03-31T20:33:46.081Z,12.67
2023-03-31T20:36:19.240Z,12.73
2023-03-31T20:38:48.539Z,12.73
2023-03-31T20:41:15.884Z,12.66
2023-03-31T20:43:43.556Z,12.55
2023-03-31T20:46:11.495Z,12.57
2023-03-31T20:48:42.704Z,12.64
2023-03-31T20:53:43.794Z,12.45
2023-03-31T20:56:12.674Z,12.33
2023-03-31T20:58:42.478Z,12.31
2023-03-31T21:01:11.722Z,12.30
2023-03-31T21:03:45.323Z,12.25
2023-03-31T21:06:15.103Z,12.21
2023-03-31T21:08:43.121Z,12.14
2023-03-31T21:11:10.160Z,12.03
2023-03-31T21:13:37.986Z,12.15
2023-03-31T21:16:07.024Z,12.16
2023-03-31T21:18:37.733Z,12.13
2023-03-31T21:21:10.914Z,12.16
2023-03-31T21:23:38.625Z,12.26
2023-03-31T21:26:09.564Z,12.29
2023-03-31T21:28:38.020Z,12.25
2023-03-31T21:31:06.690Z,12.29
2023-03-31T21:33:35.066Z,12.28
2023-03-31T21:36:02.450Z,12.31
2023-03-31T21:38:30.053Z,12.31
2023-03-31T21:40:57.572Z,12.31
2023-03-31T21:43:26.146Z,12.32
2023-03-31T21:45:58.502Z,12.39
2023-03-31T21:48:28.031Z,12.41
2023-03-31T21:50:57.846Z,12.45
2023-03-31T21:53:25.053Z,12.43
2023-03-31T21:55:55.369Z,12.37
2023-03-31T21:58:30.378Z,12.36
2023-03-31T22:01:06.180Z,12.42
2023-03-31T22:03:41.124Z,12.51
2023-03-31T22:06:09.455Z,12.53
2023-03-31T22:08:39.850Z,12.51
2023-03-31T22:11:09.463Z,12.56
2023-03-31T22:13:36.982Z,12.56
2023-03-31T22:16:18.428Z,12.54
2023-03-31T22:18:45.853Z,12.55
2023-03-31T22:21:33.664Z,12.62
2023-03-31T22:24:02.254Z,12.65
2023-03-31T22:26:31.303Z,12.70
2023-03-31T22:29:00.053Z,12.72
2023-03-31T22:31:28.367Z,12.79
2023-03-31T22:33:56.364Z,12.76
2023-03-31T22:36:27.243Z,12.72
2023-03-31T22:38:55.014Z,12.63
2023-03-31T22:41:22.754Z,12.59
2023-03-31T22:43:51.538Z,12.58
2023-03-31T22:46:18.477Z,12.55
2023-03-31T22:48:49.727Z,12.59
2023-03-31T22:51:17.826Z,12.58
2023-03-31T22:54:01.181Z,12.63
2023-03-31T22:56:28.354Z,12.63
2023-03-31T22:58:57.491Z,12.70
2023-03-31T23:01:24.572Z,12.63
2023-03-31T23:03:52.407Z,12.65
2023-03-31T23:06:25.529Z,12.60
2023-03-31T23:08:56.423Z,12.59
2023-03-31T23:11:24.673Z,12.63
2023-03-31T23:13:55.277Z,12.71
2023-03-31T23:16:24.626Z,12.77
2023-03-31T23:18:57.973Z,12.82
2023-03-31T23:21:27.741Z,12.80
2023-03-31T23:24:01.412Z,12.80
2023-03-31T23:26:30.872Z,12.76
2023-03-31T23:28:59.211Z,12.66
2023-03-31T23:31:34.190Z,12.66
2023-03-31T23:34:03.817Z,12.75
2023-03-31T23:36:38.343Z,12.82
2023-03-31T23:39:10.541Z,12.82
2023-03-31T23:41:47.095Z,12.84
2023-03-31T23:44:14.510Z,12.76
2023-03-31T23:46:47.828Z,12.78
2023-03-31T23:49:22.889Z,12.82
2023-03-31T23:51:49.932Z,12.80
2023-03-31T23:54:22.075Z,12.88
2023-03-31T23:56:53.056Z,12.94
2023-03-31T23:59:20.663Z,12.86
